Ayr Dpi Research Station, Queensland

3:48 PM AEST on December 29, 2014 (GMT +1000)
Home Hill | Change Station
CLOSE
Current Station
Personal Weather Station
Location: Home Hill, QUEENSLAND
Elevation: 56 ft
Nearby Weather Stations

Elev 56 ft 19.66 °S, 147.42 °E | Updated 50 seconds ago

Partly Cloudy
Partly Cloudy
90.9 °F
Feels Like 100 °F
N
3.1
Wind Variable Wind from North
Gusts 5.4 mph

Today
High -- | Low -- °F
--% Chance of Precip.
Yesterday
High -- | Low -- °F
Precip. -- in
5:33 AM 6:51 PM
First Quarter, 55% visible
Pressure 29.71 in
Visibility 6.2 miles
Clouds Few 3000 ft
Heat Index 100 °F
Dew Point 74 °F
Humidity 57%
Rainfall 0.02 in
Snow Depth Not available.
UV 6 out of 12
Pollen Not available.
Air Quality Not available.
Flu Activity Not available.
METAR YBTL 290530Z 08009KT 9999 FEW030 33/21 Q1006

More Conditions Fewer Conditions

Pressure 29.71 in
Visibility 6.2 miles
Clouds Few 3000 ft
Heat Index 100 °F
Dew Point 74 °F
Humidity 57%
Rainfall 0.02 in
Snow Depth Not available.
UV 6 out of 12
Pollen Not available.
Air Quality Not available.
Flu Activity Not available.
METAR YBTL 290530Z 08009KT 9999 FEW030 33/21 Q1006

More Conditions Fewer Conditions

10-Day Weather Forecast

Almanac

Astronomy

Dec. 29, 2014 Rise Set
Actual Time
Civil Twilight
Nautical Twilight
Astronomical Twilight
Moon
Length of Visible Light
Length of Day
Tomorrow will be .
, % of the Moon is Illuminated

Today's Extremes

Country Highs Country Lows

Community

WunderPhotos

Upload Photos

1,781,542 photos uploaded!

WunderBlogs® & News

Nearby

Air Quality

  Air Quality AQ Index Pollutant
Not available.

Snow Depth

Station Depth Elevation

Earthquake Activity

City Distance Mag. Time & Date
Minimum magnitude displayed is 2.5.

Coastal Water Temperatures

Place Temperature

Nearby Weather Stations